createdAt,value
2022-12-31T00:01:28.637Z,92.71
2022-12-31T00:03:57.044Z,92.77
2022-12-31T00:06:27.390Z,92.72
2022-12-31T00:08:56.958Z,92.74
2022-12-31T00:11:26.562Z,92.32
2022-12-31T00:13:56.455Z,91.64
2022-12-31T00:16:25.666Z,91.67
2022-12-31T00:18:56.541Z,92.89
2022-12-31T00:21:24.379Z,93.74
2022-12-31T00:23:52.968Z,91.58
2022-12-31T00:26:25.151Z,92.57
2022-12-31T00:28:54.594Z,92.40
2022-12-31T00:31:27.927Z,92.59
2022-12-31T00:33:57.008Z,93.19
2022-12-31T00:36:30.209Z,92.62
2022-12-31T00:39:01.826Z,93.02
2022-12-31T00:41:29.616Z,92.66
2022-12-31T00:43:57.206Z,92.19
2022-12-31T00:46:25.203Z,92.30
2022-12-31T00:48:53.200Z,93.09
2022-12-31T00:51:23.907Z,92.88
2022-12-31T00:53:51.390Z,92.57
2022-12-31T00:56:21.481Z,92.14
2022-12-31T00:58:50.014Z,92.38
2022-12-31T01:01:25.486Z,92.63
2022-12-31T01:03:55.718Z,92.53
2022-12-31T01:06:23.836Z,92.17
2022-12-31T01:08:53.962Z,91.95
2022-12-31T01:11:22.720Z,91.72
2022-12-31T01:14:00.905Z,91.21
2022-12-31T01:16:32.429Z,92.49
2022-12-31T01:19:02.525Z,92.84
2022-12-31T01:21:31.781Z,91.42
2022-12-31T01:24:00.240Z,92.30
2022-12-31T01:26:28.375Z,92.70
2022-12-31T01:28:56.136Z,92.67
2022-12-31T01:31:24.980Z,92.30
2022-12-31T01:33:52.998Z,92.12
2022-12-31T01:36:26.261Z,92.78
2022-12-31T01:38:55.741Z,92.67
2022-12-31T01:41:33.019Z,92.46
2022-12-31T01:44:03.435Z,92.32
2022-12-31T01:46:54.912Z,93.11
2022-12-31T01:49:54.272Z,93.03
2022-12-31T01:52:32.670Z,92.90
2022-12-31T01:55:06.099Z,92.85
2022-12-31T01:57:35.030Z,92.76
2022-12-31T02:00:04.921Z,94.04
2022-12-31T02:02:32.856Z,93.29
2022-12-31T02:05:05.702Z,93.01
2022-12-31T02:07:33.233Z,93.76
2022-12-31T02:10:01.843Z,93.87
2022-12-31T02:12:29.552Z,93.36
2022-12-31T02:14:57.337Z,93.29
2022-12-31T02:17:43.410Z,93.25
2022-12-31T02:20:29.322Z,92.83
2022-12-31T02:22:56.762Z,93.51
2022-12-31T02:25:27.299Z,93.95
2022-12-31T02:28:27.998Z,93.22
2022-12-31T02:31:16.960Z,93.42
2022-12-31T02:34:09.045Z,94.25
2022-12-31T02:36:40.753Z,93.87
2022-12-31T02:39:10.112Z,94.09
2022-12-31T02:41:49.983Z,94.17
2022-12-31T02:44:20.495Z,93.98
2022-12-31T02:47:08.216Z,93.72
2022-12-31T02:50:05.141Z,92.91
2022-12-31T02:53:06.773Z,92.44
2022-12-31T02:55:55.421Z,93.06
2022-12-31T02:59:01.526Z,92.87
2022-12-31T03:01:53.907Z,93.59
2022-12-31T03:04:32.297Z,93.22
2022-12-31T03:07:05.866Z,93.00
2022-12-31T03:09:35.349Z,93.32
2022-12-31T03:12:23.984Z,92.92
2022-12-31T03:14:51.718Z,92.66
2022-12-31T03:17:19.633Z,92.87
2022-12-31T03:20:05.907Z,93.43
2022-12-31T03:22:36.475Z,92.47
2022-12-31T03:25:25.736Z,91.86
2022-12-31T03:27:54.056Z,92.82
2022-12-31T03:30:23.349Z,92.15
2022-12-31T03:32:51.595Z,92.52
2022-12-31T03:35:20.645Z,93.01
2022-12-31T03:37:49.390Z,93.21
2022-12-31T03:40:18.345Z,92.87
2022-12-31T03:42:46.534Z,93.40
2022-12-31T03:45:14.317Z,92.85
2022-12-31T03:47:41.900Z,93.84
2022-12-31T03:50:12.395Z,94.03
2022-12-31T03:52:39.929Z,93.50
2022-12-31T03:55:08.750Z,94.93
2022-12-31T03:57:36.788Z,94.64
2022-12-31T04:00:10.878Z,92.87
2022-12-31T04:02:38.780Z,92.90
2022-12-31T04:05:06.999Z,93.65
2022-12-31T04:07:34.680Z,92.76
2022-12-31T04:10:04.392Z,92.60
2022-12-31T04:12:32.663Z,92.84
2022-12-31T04:15:00.468Z,93.22
2022-12-31T04:17:27.989Z,93.30
2022-12-31T04:19:56.366Z,93.88
2022-12-31T04:22:23.887Z,94.78
2022-12-31T04:24:51.528Z,94.56
2022-12-31T04:27:19.106Z,93.75
2022-12-31T04:29:46.773Z,94.56
2022-12-31T04:32:14.365Z,94.59
2022-12-31T04:34:43.013Z,94.41
2022-12-31T04:37:10.568Z,93.32
2022-12-31T04:39:39.253Z,93.55
2022-12-31T04:42:06.807Z,95.03
2022-12-31T04:44:35.136Z,95.22
2022-12-31T04:47:02.690Z,95.05
2022-12-31T04:49:30.428Z,93.98
2022-12-31T04:51:57.857Z,92.63
2022-12-31T04:54:25.311Z,93.52
2022-12-31T04:56:52.864Z,92.78
2022-12-31T04:59:20.498Z,93.41
2022-12-31T05:01:48.149Z,91.08
2022-12-31T05:04:15.680Z,91.48
2022-12-31T05:06:43.266Z,92.04
2022-12-31T05:09:10.985Z,93.25
2022-12-31T05:11:39.355Z,93.10
2022-12-31T05:14:06.918Z,93.79
2022-12-31T05:16:34.520Z,94.51
2022-12-31T05:19:02.162Z,92.90
2022-12-31T05:21:29.711Z,92.53
2022-12-31T05:23:57.210Z,93.84
2022-12-31T05:26:24.667Z,93.99
2022-12-31T05:28:52.380Z,93.76
2022-12-31T05:31:20.156Z,93.96
2022-12-31T05:33:48.688Z,93.90
2022-12-31T05:36:16.193Z,89.12
2022-12-31T05:38:43.772Z,92.28
2022-12-31T05:41:11.712Z,90.57
2022-12-31T05:43:39.302Z,88.57
2022-12-31T05:46:06.863Z,87.85
2022-12-31T05:48:34.383Z,85.33
2022-12-31T05:51:01.911Z,88.69
2022-12-31T05:53:29.672Z,88.89
2022-12-31T05:55:57.248Z,87.71
2022-12-31T05:58:24.767Z,90.36
2022-12-31T06:00:52.745Z,92.14
2022-12-31T06:03:20.400Z,91.45
2022-12-31T06:05:48.013Z,91.98
2022-12-31T06:08:15.623Z,91.56
2022-12-31T06:10:45.822Z,91.30
2022-12-31T06:13:13.389Z,91.18
2022-12-31T06:15:40.937Z,90.88
2022-12-31T06:18:08.789Z,91.33
2022-12-31T06:20:37.807Z,91.73
2022-12-31T06:23:05.863Z,91.40
2022-12-31T06:25:35.684Z,91.25
2022-12-31T06:28:04.432Z,91.21
2022-12-31T06:30:32.441Z,91.21
2022-12-31T06:32:59.953Z,91.17
2022-12-31T06:35:27.463Z,90.53
2022-12-31T06:37:54.999Z,90.57
2022-12-31T06:40:22.531Z,90.61
2022-12-31T06:42:56.034Z,90.59
2022-12-31T06:45:28.262Z,90.13
2022-12-31T06:47:55.807Z,90.34
2022-12-31T06:50:23.359Z,89.69
2022-12-31T06:52:51.223Z,89.68
2022-12-31T06:55:19.096Z,90.78
2022-12-31T06:57:47.189Z,90.36
2022-12-31T07:00:15.413Z,90.45
2022-12-31T07:03:08.056Z,89.83
2022-12-31T07:05:50.664Z,89.63
2022-12-31T07:09:02.750Z,89.79
2022-12-31T07:11:44.893Z,89.17
2022-12-31T07:14:31.099Z,89.54
2022-12-31T07:17:23.506Z,88.66
2022-12-31T07:20:07.768Z,89.05
2022-12-31T07:22:36.713Z,88.81
2022-12-31T07:25:06.612Z,88.24
2022-12-31T07:27:42.843Z,89.06
2022-12-31T07:30:21.463Z,88.79
2022-12-31T07:33:26.183Z,88.10
2022-12-31T07:36:12.443Z,88.32
2022-12-31T07:38:53.182Z,87.27
2022-12-31T07:41:29.715Z,88.05
2022-12-31T07:43:57.889Z,88.51
2022-12-31T07:46:43.030Z,89.14
2022-12-31T07:49:14.213Z,89.72
2022-12-31T07:51:42.280Z,89.66
2022-12-31T07:54:13.874Z,89.41
2022-12-31T07:56:43.082Z,88.32
2022-12-31T07:59:24.563Z,86.10
2022-12-31T08:02:05.094Z,88.04
2022-12-31T08:04:42.503Z,88.77
2022-12-31T08:07:15.681Z,88.46
2022-12-31T08:09:45.942Z,88.09
2022-12-31T08:12:14.244Z,89.23
2022-12-31T08:14:47.227Z,89.12
2022-12-31T08:17:17.871Z,89.85
2022-12-31T08:19:46.289Z,89.62
2022-12-31T08:22:26.108Z,89.13
2022-12-31T08:25:21.212Z,89.31
2022-12-31T08:28:09.068Z,91.02
2022-12-31T08:31:04.363Z,90.15
2022-12-31T08:33:40.364Z,88.86
2022-12-31T08:36:27.776Z,90.15
2022-12-31T08:39:07.668Z,89.35
2022-12-31T08:41:47.762Z,89.92
2022-12-31T08:44:33.691Z,88.62
2022-12-31T08:47:23.091Z,88.19
2022-12-31T08:49:51.004Z,88.16
2022-12-31T08:52:26.814Z,87.86
2022-12-31T08:54:55.020Z,87.55
2022-12-31T08:57:42.567Z,88.31
2022-12-31T09:00:16.906Z,87.58
2022-12-31T09:03:08.683Z,87.10
2022-12-31T09:06:00.468Z,86.27
2022-12-31T09:08:52.652Z,85.93
2022-12-31T09:11:34.011Z,85.95
2022-12-31T09:14:25.811Z,86.39
2022-12-31T09:16:56.562Z,86.52
2022-12-31T09:19:24.134Z,87.38
2022-12-31T09:21:51.995Z,87.51
2022-12-31T09:24:19.834Z,86.53
2022-12-31T09:26:56.152Z,87.22
2022-12-31T09:29:29.739Z,86.47
2022-12-31T09:32:20.880Z,86.74
2022-12-31T09:34:57.280Z,86.42
2022-12-31T09:37:30.965Z,86.33
2022-12-31T09:40:28.662Z,86.19
2022-12-31T09:43:14.560Z,84.60
2022-12-31T09:46:04.872Z,83.42
2022-12-31T09:49:03.676Z,82.70
2022-12-31T09:51:38.239Z,81.97
2022-12-31T09:54:17.641Z,82.22
2022-12-31T09:57:17.336Z,82.13
2022-12-31T10:00:10.968Z,82.14
2022-12-31T10:03:08.650Z,83.04
2022-12-31T10:05:54.631Z,82.24
2022-12-31T10:09:01.563Z,81.83
2022-12-31T10:11:32.031Z,80.97
2022-12-31T10:14:33.441Z,80.82
2022-12-31T10:17:16.744Z,79.26
2022-12-31T10:20:05.752Z,78.17
2022-12-31T10:23:04.636Z,79.32
2022-12-31T10:25:50.392Z,79.22
2022-12-31T10:28:19.052Z,79.27
2022-12-31T10:31:03.113Z,79.03
2022-12-31T10:33:30.627Z,78.93
2022-12-31T10:36:21.040Z,77.98
2022-12-31T10:38:48.489Z,79.29
2022-12-31T10:41:25.029Z,79.58
2022-12-31T10:44:19.889Z,79.17
2022-12-31T10:47:19.407Z,79.03
2022-12-31T10:49:56.060Z,79.58
2022-12-31T10:52:45.492Z,78.68
2022-12-31T10:55:39.374Z,79.38
2022-12-31T10:58:21.991Z,78.51
2022-12-31T11:01:18.801Z,78.49
2022-12-31T11:04:20.454Z,78.83
2022-12-31T11:07:19.634Z,78.57
2022-12-31T11:10:20.401Z,78.78
2022-12-31T11:13:09.401Z,78.77
2022-12-31T11:15:42.038Z,79.98
2022-12-31T11:18:12.800Z,79.20
2022-12-31T11:20:56.049Z,77.37
2022-12-31T11:23:38.457Z,77.91
2022-12-31T11:26:55.425Z,77.03
2022-12-31T11:29:50.793Z,77.43
2022-12-31T11:32:45.281Z,76.48
2022-12-31T11:35:22.271Z,76.89
2022-12-31T11:38:15.017Z,77.33
2022-12-31T11:40:48.076Z,76.48
2022-12-31T11:43:15.459Z,74.82
2022-12-31T11:45:50.724Z,75.24
2022-12-31T11:48:30.578Z,74.49
2022-12-31T11:51:16.550Z,75.64
2022-12-31T11:54:01.231Z,73.46
2022-12-31T11:56:37.412Z,73.25
2022-12-31T11:59:18.848Z,73.32
2022-12-31T12:02:04.440Z,73.35
2022-12-31T12:04:32.022Z,73.05
2022-12-31T12:06:59.723Z,73.34
2022-12-31T12:09:30.228Z,73.05
2022-12-31T12:12:03.655Z,70.48
2022-12-31T12:14:35.273Z,70.16
2022-12-31T12:17:06.523Z,68.44
2022-12-31T12:19:36.106Z,68.20
2022-12-31T12:22:19.891Z,66.31
2022-12-31T12:24:56.936Z,59.50
2022-12-31T12:27:29.274Z,55.93
2022-12-31T12:29:57.486Z,54.94
2022-12-31T12:32:26.954Z,52.18
2022-12-31T12:34:54.461Z,54.76
2022-12-31T12:37:24.745Z,60.56
2022-12-31T12:40:02.327Z,60.71
2022-12-31T12:42:30.452Z,62.53
2022-12-31T12:45:35.637Z,63.72
2022-12-31T12:48:16.653Z,65.38
2022-12-31T12:50:47.470Z,65.22
2022-12-31T12:53:32.696Z,62.84
2022-12-31T12:56:18.875Z,65.01
2022-12-31T12:58:49.423Z,66.19
2022-12-31T13:01:34.956Z,66.76
2022-12-31T13:04:39.768Z,67.54
2022-12-31T13:07:18.988Z,68.18
2022-12-31T13:09:59.795Z,68.49
2022-12-31T13:12:27.323Z,69.61
2022-12-31T13:15:11.043Z,69.36
2022-12-31T13:17:48.289Z,69.84
2022-12-31T13:20:28.890Z,69.90
2022-12-31T13:23:36.274Z,69.39
2022-12-31T13:26:20.532Z,70.27
2022-12-31T13:28:50.824Z,71.01
2022-12-31T13:31:24.876Z,71.12
2022-12-31T13:34:15.491Z,72.37
2022-12-31T13:36:46.027Z,73.32
2022-12-31T13:39:41.905Z,73.02
2022-12-31T13:42:28.765Z,72.52
2022-12-31T13:45:02.375Z,72.40
2022-12-31T13:47:40.864Z,72.59
2022-12-31T13:50:26.842Z,71.98
2022-12-31T13:53:21.469Z,71.68
2022-12-31T13:56:02.058Z,71.65
2022-12-31T13:58:35.318Z,73.35
2022-12-31T14:01:14.775Z,73.08
2022-12-31T14:03:59.394Z,73.24
2022-12-31T14:06:38.729Z,71.84
2022-12-31T14:09:08.114Z,72.37
2022-12-31T14:12:06.356Z,72.17
2022-12-31T14:14:58.356Z,73.02
2022-12-31T14:17:59.867Z,73.14
2022-12-31T14:20:27.573Z,73.98
2022-12-31T14:22:58.020Z,73.64
2022-12-31T14:25:31.772Z,73.59
2022-12-31T14:28:02.577Z,74.16
2022-12-31T14:30:36.186Z,74.06
2022-12-31T14:33:17.423Z,74.28
2022-12-31T14:36:10.761Z,74.51
2022-12-31T14:38:38.507Z,75.08
2022-12-31T14:41:27.256Z,75.69
2022-12-31T14:43:54.694Z,75.80
2022-12-31T14:46:31.187Z,75.70
2022-12-31T14:49:17.025Z,76.08
2022-12-31T14:51:44.947Z,77.33
2022-12-31T14:54:29.362Z,77.18
2022-12-31T14:56:58.005Z,77.65
2022-12-31T14:59:35.649Z,78.01
2022-12-31T15:02:30.179Z,78.20
2022-12-31T15:05:15.845Z,78.45
2022-12-31T15:07:49.267Z,78.12
2022-12-31T15:10:23.584Z,78.86
2022-12-31T15:12:59.996Z,78.44
2022-12-31T15:15:59.626Z,79.29
2022-12-31T15:18:39.252Z,79.56
2022-12-31T15:21:20.710Z,80.16
2022-12-31T15:23:49.834Z,80.34
2022-12-31T15:26:24.653Z,80.73
2022-12-31T15:29:05.348Z,79.97
2022-12-31T15:31:37.562Z,80.44
2022-12-31T15:34:24.306Z,80.46
2022-12-31T15:36:54.839Z,80.62
2022-12-31T15:39:42.778Z,80.57
2022-12-31T15:42:42.402Z,81.52
2022-12-31T15:45:37.412Z,80.91
2022-12-31T15:48:19.487Z,81.33
2022-12-31T15:50:51.261Z,81.42
2022-12-31T15:53:38.538Z,81.15
2022-12-31T15:56:08.451Z,81.34
2022-12-31T15:58:36.707Z,81.60
2022-12-31T16:01:20.996Z,82.38
2022-12-31T16:04:04.344Z,83.05
2022-12-31T16:06:37.023Z,82.24
2022-12-31T16:09:09.968Z,81.96
2022-12-31T16:11:41.767Z,82.13
2022-12-31T16:14:18.496Z,82.33
2022-12-31T16:16:58.332Z,82.59
2022-12-31T16:19:50.057Z,82.61
2022-12-31T16:22:38.606Z,82.96
2022-12-31T16:27:56.088Z,84.51
2022-12-31T16:30:28.073Z,84.56
2022-12-31T16:33:00.608Z,85.54
2022-12-31T16:35:34.128Z,85.75
2022-12-31T16:38:01.519Z,85.07
2022-12-31T16:40:29.361Z,85.94
2022-12-31T16:43:00.219Z,87.30
2022-12-31T16:45:32.107Z,86.80
2022-12-31T16:48:17.262Z,85.90
2022-12-31T16:50:47.733Z,85.85
2022-12-31T16:53:19.643Z,86.22
2022-12-31T16:56:02.036Z,86.29
2022-12-31T16:58:33.453Z,86.66
2022-12-31T17:01:23.265Z,87.91
2022-12-31T17:03:58.326Z,88.33
2022-12-31T17:06:28.160Z,86.63
2022-12-31T17:08:56.069Z,87.04
2022-12-31T17:11:39.256Z,86.31
2022-12-31T17:14:09.684Z,86.21
2022-12-31T17:17:03.480Z,86.70
2022-12-31T17:19:38.884Z,86.06
2022-12-31T17:22:13.832Z,87.38
2022-12-31T17:24:42.248Z,86.96
2022-12-31T17:27:10.448Z,86.46
2022-12-31T17:29:38.864Z,86.16
2022-12-31T17:32:31.220Z,85.78
2022-12-31T17:34:58.836Z,85.81
2022-12-31T17:37:31.485Z,85.93
2022-12-31T17:40:40.560Z,85.47
2022-12-31T17:42:51.429Z,84.54
2022-12-31T17:45:21.533Z,85.13
2022-12-31T17:47:52.000Z,85.00
2022-12-31T17:50:20.970Z,84.29
2022-12-31T17:52:48.908Z,84.80
2022-12-31T17:55:16.588Z,85.45
2022-12-31T17:58:05.959Z,84.98
2022-12-31T18:00:36.777Z,85.25
2022-12-31T18:03:04.481Z,85.76
2022-12-31T18:05:32.050Z,86.78
2022-12-31T18:07:59.648Z,86.55
2022-12-31T18:10:29.492Z,87.58
2022-12-31T18:13:01.849Z,88.11
2022-12-31T18:15:29.422Z,89.37
2022-12-31T18:17:57.121Z,88.29
2022-12-31T18:20:25.748Z,88.02
2022-12-31T18:22:53.330Z,88.06
2022-12-31T18:25:24.031Z,87.86
2022-12-31T18:27:52.533Z,87.91
2022-12-31T18:30:20.094Z,88.52
2022-12-31T18:32:47.783Z,88.44
2022-12-31T18:36:06.422Z,89.32
2022-12-31T18:38:14.720Z,88.90
2022-12-31T18:40:46.469Z,89.27
2022-12-31T18:43:17.427Z,88.74
2022-12-31T18:45:46.392Z,89.38
2022-12-31T18:48:14.550Z,89.25
2022-12-31T18:50:42.319Z,89.65
2022-12-31T18:53:22.264Z,89.65
2022-12-31T18:55:57.571Z,89.84
2022-12-31T18:58:25.053Z,90.98
2022-12-31T19:00:52.750Z,90.14
2022-12-31T19:03:23.333Z,89.94
2022-12-31T19:05:52.136Z,90.54
2022-12-31T19:08:21.771Z,91.16
2022-12-31T19:10:51.442Z,90.19
2022-12-31T19:13:20.201Z,91.01
2022-12-31T19:15:50.223Z,90.78
2022-12-31T19:18:17.953Z,89.95
2022-12-31T19:20:45.967Z,88.93
2022-12-31T19:23:19.577Z,88.98
2022-12-31T19:25:48.018Z,89.48
2022-12-31T19:28:18.325Z,90.52
2022-12-31T19:30:46.695Z,90.49
2022-12-31T19:33:14.947Z,91.60
2022-12-31T19:35:43.393Z,91.68
2022-12-31T19:38:18.933Z,90.45
2022-12-31T19:40:47.461Z,91.06
2022-12-31T19:43:18.875Z,90.27
2022-12-31T19:45:47.276Z,90.31
2022-12-31T19:48:18.469Z,90.82
2022-12-31T19:50:48.818Z,90.66
2022-12-31T19:53:22.333Z,89.72
2022-12-31T19:55:50.638Z,90.28
2022-12-31T19:58:21.431Z,91.19
2022-12-31T20:00:55.674Z,90.80
2022-12-31T20:03:25.083Z,90.91
2022-12-31T20:06:05.623Z,90.31
2022-12-31T20:08:34.547Z,90.55
2022-12-31T20:11:16.010Z,91.37
2022-12-31T20:13:43.763Z,91.31
2022-12-31T20:16:17.173Z,91.00
2022-12-31T20:18:46.800Z,91.27
2022-12-31T20:21:20.068Z,91.01
2022-12-31T20:23:51.865Z,90.89
2022-12-31T20:26:20.366Z,90.80
2022-12-31T20:28:48.694Z,89.92
2022-12-31T20:31:23.527Z,89.93
2022-12-31T20:33:53.656Z,89.78
2022-12-31T20:36:22.257Z,89.50
2022-12-31T20:38:50.329Z,90.65
2022-12-31T20:41:20.462Z,91.16
2022-12-31T20:43:50.968Z,91.35
2022-12-31T20:46:25.807Z,91.29
2022-12-31T20:48:56.063Z,92.54
2022-12-31T20:51:24.482Z,91.33
2022-12-31T20:53:55.478Z,91.69
2022-12-31T20:56:24.774Z,91.01
2022-12-31T20:58:52.343Z,91.72
2022-12-31T21:01:20.684Z,92.19
2022-12-31T21:04:05.964Z,91.80
2022-12-31T21:06:35.705Z,92.01
2022-12-31T21:09:05.838Z,92.65
2022-12-31T21:11:52.235Z,92.44
2022-12-31T21:14:20.065Z,91.71
2022-12-31T21:16:47.659Z,91.84
2022-12-31T21:19:15.810Z,91.63
2022-12-31T21:21:48.109Z,91.16
2022-12-31T21:24:21.801Z,91.11
2022-12-31T21:26:54.364Z,91.06
2022-12-31T21:29:21.894Z,91.17
2022-12-31T21:31:49.775Z,91.73
2022-12-31T21:34:17.348Z,92.08
2022-12-31T21:36:47.023Z,91.78
2022-12-31T21:39:14.669Z,91.83
2022-12-31T21:41:51.091Z,92.04
2022-12-31T21:44:26.964Z,92.68
2022-12-31T21:47:35.410Z,92.20
2022-12-31T21:50:05.307Z,93.05
2022-12-31T21:52:35.072Z,92.26
2022-12-31T21:55:25.292Z,92.38
2022-12-31T22:01:09.546Z,91.56
2022-12-31T22:03:37.276Z,90.73
2022-12-31T22:06:12.792Z,91.23
2022-12-31T22:08:41.810Z,92.41
2022-12-31T22:11:10.695Z,92.04
2022-12-31T22:13:38.604Z,90.83
2022-12-31T22:16:09.809Z,91.35
2022-12-31T22:18:39.332Z,91.24
2022-12-31T22:21:15.698Z,91.12
2022-12-31T22:23:48.630Z,91.34
2022-12-31T22:26:18.451Z,91.33
2022-12-31T22:28:46.625Z,91.64
2022-12-31T22:31:24.575Z,92.55
2022-12-31T22:33:52.560Z,90.90
2022-12-31T22:36:22.523Z,89.81
2022-12-31T22:38:55.696Z,90.11
2022-12-31T22:41:24.583Z,91.46
2022-12-31T22:44:00.503Z,91.58
2022-12-31T22:46:30.692Z,92.63
2022-12-31T22:48:59.677Z,92.46
2022-12-31T22:51:55.963Z,93.32
2022-12-31T22:54:15.198Z,91.64
2022-12-31T22:56:42.806Z,92.08
2022-12-31T22:59:11.808Z,92.97
2022-12-31T23:01:39.466Z,93.27
2022-12-31T23:04:07.063Z,92.37
2022-12-31T23:06:43.379Z,92.66
2022-12-31T23:09:30.975Z,93.62
2022-12-31T23:11:59.186Z,92.79
2022-12-31T23:14:46.434Z,93.25
2022-12-31T23:17:39.180Z,91.67
2022-12-31T23:20:29.461Z,92.21
2022-12-31T23:23:26.341Z,91.54
2022-12-31T23:26:01.223Z,92.31
2022-12-31T23:28:29.014Z,92.27
2022-12-31T23:30:56.653Z,92.13
2022-12-31T23:33:26.121Z,91.75
2022-12-31T23:36:07.499Z,92.29
2022-12-31T23:38:36.923Z,93.20
2022-12-31T23:41:16.048Z,92.57
2022-12-31T23:43:44.170Z,93.24
2022-12-31T23:46:13.032Z,92.18
2022-12-31T23:48:40.802Z,92.62
2022-12-31T23:51:08.481Z,91.65
2022-12-31T23:53:39.695Z,91.50
2022-12-31T23:56:20.872Z,92.55
2022-12-31T23:58:58.138Z,93.13
